Time;durP1;ratioP1;P1;durP2;ratioP2;P2;SDS_P1;SDS_P2;PMS_P1;PMS_P2;Temp;Humidity;BMP_temperature;BMP_pressure;BME280_temperature;BME280_humidity;BME280_pressure;Samples;Min_cycle;Max_cycle;Signal;HPM_P1;HPM_P2
2023/05/18 00:04:49;;;;;;;3.25;1.10;;;;;;;;;;10467117;28;20221;-75
2023/05/18 00:09:50;;;;;;;2.17;1.20;;;;;;;;;;10473095;28;20312;-73
2023/05/18 00:14:51;;;;;;;2.00;1.00;;;;;;;;;;10457506;28;20221;-74
2023/05/18 00:19:52;;;;;;;1.40;0.93;;;;;;;;;;10468516;28;20300;-73
2023/05/18 00:24:53;;;;;;;3.97;1.13;;;;;;;;;;10474213;28;20220;-72
2023/05/18 00:29:54;;;;;;;2.03;1.05;;;;;;;;;;10474981;28;20206;-73
2023/05/18 00:34:54;;;;;;;1.00;1.00;;;;;;;;;;10473031;28;20329;-73
2023/05/18 00:39:57;;;;;;;1.58;1.20;;;;;;;;;;10456870;28;20217;-74
2023/05/18 00:44:58;;;;;;;2.83;1.00;;;;;;;;;;10475468;28;20222;-74
2023/05/18 00:49:59;;;;;;;1.77;1.15;;;;;;;;;;10451068;28;20251;-73
2023/05/18 00:55:00;;;;;;;1.25;1.15;;;;;;;;;;10473854;28;20213;-72
2023/05/18 01:00:02;;;;;;;6.57;0.93;;;;;;;;;;10454429;28;20218;-73
2023/05/18 01:05:03;;;;;;;3.08;1.20;;;;;;;;;;10427038;28;20312;-74
2023/05/18 01:10:06;;;;;;;1.98;0.95;;;;;;;;;;10449009;28;20291;-74
2023/05/18 01:15:07;;;;;;;4.15;0.90;;;;;;;;;;10453554;28;20661;-75
2023/05/18 01:20:11;;;;;;;2.85;1.23;;;;;;;;;;10466978;28;20232;-74
2023/05/18 01:25:18;;;;;;;3.17;1.40;;;;;;;;;;10462910;28;20222;-74
2023/05/18 01:30:19;;;;;;;2.30;1.00;;;;;;;;;;10433299;28;20197;-72
2023/05/18 01:35:20;;;;;;;1.80;1.00;;;;;;;;;;10465497;28;20208;-73
2023/05/18 01:40:22;;;;;;;4.45;1.20;;;;;;;;;;10480633;28;20755;-74
2023/05/18 01:45:27;;;;;;;2.10;1.25;;;;;;;;;;10436035;28;20241;-75
2023/05/18 01:50:36;;;;;;;4.00;1.10;;;;;;;;;;10462067;28;20225;-73
2023/05/18 01:55:38;;;;;;;1.98;0.90;;;;;;;;;;10475852;28;20269;-74
2023/05/18 02:00:39;;;;;;;1.92;0.73;;;;;;;;;;10428449;28;20213;-76
2023/05/18 02:05:40;;;;;;;1.10;1.10;;;;;;;;;;10432590;28;20296;-74
2023/05/18 02:10:42;;;;;;;5.35;0.95;;;;;;;;;;10458491;28;20241;-75
2023/05/18 02:15:43;;;;;;;1.35;1.20;;;;;;;;;;10457595;28;20221;-75
2023/05/18 02:20:47;;;;;;;5.32;1.55;;;;;;;;;;10460617;28;20233;-74
2023/05/18 02:25:48;;;;;;;5.20;1.73;;;;;;;;;;10466969;28;20313;-74
2023/05/18 02:30:49;;;;;;;0.73;0.73;;;;;;;;;;10478316;28;20220;-73
2023/05/18 02:35:51;;;;;;;2.13;1.15;;;;;;;;;;10482257;28;20918;-74
2023/05/18 02:40:52;;;;;;;1.35;0.90;;;;;;;;;;10461461;28;20588;-73
2023/05/18 02:45:53;;;;;;;1.85;1.05;;;;;;;;;;10479558;28;20228;-74
2023/05/18 02:50:54;;;;;;;3.67;1.23;;;;;;;;;;10450285;28;20228;-73
2023/05/18 02:55:56;;;;;;;1.05;1.05;;;;;;;;;;10452806;28;20217;-72
2023/05/18 03:01:06;;;;;;;3.90;1.20;;;;;;;;;;10445994;28;20679;-75
2023/05/18 03:06:12;;;;;;;1.92;1.23;;;;;;;;;;10452588;28;21531;-75
2023/05/18 03:11:14;;;;;;;1.98;1.23;;;;;;;;;;10460602;28;20598;-74
2023/05/18 03:16:15;;;;;;;1.70;0.80;;;;;;;;;;10438572;28;20295;-73
2023/05/18 03:21:16;;;;;;;0.75;0.75;;;;;;;;;;10450931;28;20225;-74
2023/05/18 03:26:17;;;;;;;2.53;1.15;;;;;;;;;;10485617;28;20713;-74
2023/05/18 03:31:18;;;;;;;3.97;1.15;;;;;;;;;;10458908;28;20224;-73
2023/05/18 03:36:21;;;;;;;1.83;1.20;;;;;;;;;;10447390;28;20217;-72
2023/05/18 03:41:22;;;;;;;1.17;1.00;;;;;;;;;;10448065;28;20606;-72
2023/05/18 03:46:24;;;;;;;0.73;0.73;;;;;;;;;;10459437;28;20271;-74
2023/05/18 03:51:27;;;;;;;5.18;0.95;;;;;;;;;;10474142;28;21445;-74
2023/05/18 03:56:30;;;;;;;4.30;1.30;;;;;;;;;;10460126;28;20921;-71
2023/05/18 04:01:32;;;;;;;2.53;0.90;;;;;;;;;;10477018;28;20214;-73
2023/05/18 04:06:38;;;;;;;5.00;0.80;;;;;;;;;;10465725;28;20225;-74
2023/05/18 04:11:40;;;;;;;2.95;1.15;;;;;;;;;;10455338;28;20221;-74
2023/05/18 04:16:41;;;;;;;2.13;0.80;;;;;;;;;;10450019;28;20271;-73
2023/05/18 04:21:42;;;;;;;5.07;1.20;;;;;;;;;;10464537;28;20298;-73
2023/05/18 04:26:43;;;;;;;2.85;1.13;;;;;;;;;;10474123;28;20221;-73
2023/05/18 04:31:48;;;;;;;5.60;1.35;;;;;;;;;;10478725;28;20221;-76
2023/05/18 04:36:49;;;;;;;4.50;1.23;;;;;;;;;;10483126;28;20214;-73
2023/05/18 04:41:56;;;;;;;4.88;1.17;;;;;;;;;;10455793;28;21101;-74
2023/05/18 04:46:59;;;;;;;1.50;0.90;;;;;;;;;;10466315;28;20222;-73
2023/05/18 04:52:00;;;;;;;3.60;1.30;;;;;;;;;;10456877;28;20316;-75
2023/05/18 04:57:02;;;;;;;1.27;0.57;;;;;;;;;;10452910;28;20212;-74
2023/05/18 05:02:03;;;;;;;5.03;1.27;;;;;;;;;;10432216;28;20312;-74
2023/05/18 05:07:04;;;;;;;0.60;0.60;;;;;;;;;;10440325;28;20213;-72
2023/05/18 05:12:06;;;;;;;1.95;1.08;;;;;;;;;;10455488;28;20336;-74
2023/05/18 05:17:07;;;;;;;3.50;0.85;;;;;;;;;;10436776;28;20315;-74
2023/05/18 05:22:08;;;;;;;2.53;1.10;;;;;;;;;;10449748;28;20609;-72
2023/05/18 05:27:09;;;;;;;5.53;0.70;;;;;;;;;;10457739;28;20234;-74
2023/05/18 05:32:11;;;;;;;1.15;0.82;;;;;;;;;;10465286;28;20213;-74
2023/05/18 05:37:13;;;;;;;4.20;1.38;;;;;;;;;;10467702;28;20229;-74
2023/05/18 05:42:15;;;;;;;5.15;0.82;;;;;;;;;;10450263;28;20226;-72
2023/05/18 05:47:16;;;;;;;1.92;0.73;;;;;;;;;;10448014;28;20744;-74
2023/05/18 05:52:19;;;;;;;5.00;0.88;;;;;;;;;;10436590;28;20254;-74
2023/05/18 05:57:20;;;;;;;5.90;1.02;;;;;;;;;;10434936;28;20667;-73
2023/05/18 06:02:21;;;;;;;5.32;1.27;;;;;;;;;;10452755;28;20245;-72
2023/05/18 06:07:23;;;;;;;2.40;1.00;;;;;;;;;;10455357;28;20210;-74
2023/05/18 06:12:25;;;;;;;3.10;0.95;;;;;;;;;;10468027;28;20217;-74
2023/05/18 06:17:26;;;;;;;2.72;0.80;;;;;;;;;;10453383;28;20238;-73
2023/05/18 06:22:28;;;;;;;4.72;1.10;;;;;;;;;;10471026;28;20209;-74
2023/05/18 06:27:45;;;;;;;1.67;0.95;;;;;;;;;;10452353;28;20221;-74
2023/05/18 06:33:11;;;;;;;1.35;0.82;;;;;;;;;;10464848;28;20376;-77
2023/05/18 06:38:12;;;;;;;0.80;0.80;;;;;;;;;;10464104;28;20270;-75
2023/05/18 06:43:13;;;;;;;1.75;1.00;;;;;;;;;;10459127;28;20220;-75
2023/05/18 06:48:23;;;;;;;3.42;0.52;;;;;;;;;;10444044;28;20256;-76
2023/05/18 06:53:26;;;;;;;4.93;1.02;;;;;;;;;;10457754;28;20248;-75
2023/05/18 06:58:27;;;;;;;3.38;1.10;;;;;;;;;;10454521;28;20217;-75
2023/05/18 07:03:31;;;;;;;3.33;0.80;;;;;;;;;;10465104;28;20221;-75
2023/05/18 07:08:32;;;;;;;2.78;0.80;;;;;;;;;;10482544;28;20214;-75
2023/05/18 07:13:33;;;;;;;2.90;0.63;;;;;;;;;;10476161;28;20228;-75
2023/05/18 07:18:34;;;;;;;2.33;0.70;;;;;;;;;;10477479;28;20234;-76
2023/05/18 07:23:35;;;;;;;2.10;0.65;;;;;;;;;;10449575;28;20209;-76
2023/05/18 07:28:36;;;;;;;5.50;0.85;;;;;;;;;;10476594;28;20218;-76
2023/05/18 07:33:37;;;;;;;4.80;0.70;;;;;;;;;;10447893;28;20245;-76
2023/05/18 07:38:38;;;;;;;2.15;0.63;;;;;;;;;;10458851;28;20728;-76
2023/05/18 07:43:39;;;;;;;1.95;0.60;;;;;;;;;;10450537;28;20217;-77
2023/05/18 07:48:41;;;;;;;1.13;0.45;;;;;;;;;;10479561;28;20217;-78
2023/05/18 07:53:42;;;;;;;3.40;0.75;;;;;;;;;;10444250;28;20853;-75
2023/05/18 07:58:43;;;;;;;2.72;0.63;;;;;;;;;;10443646;28;20692;-75
2023/05/18 08:03:45;;;;;;;2.67;0.70;;;;;;;;;;10479115;28;20217;-77
2023/05/18 08:08:46;;;;;;;3.47;0.65;;;;;;;;;;10476601;28;20210;-76
2023/05/18 08:13:47;;;;;;;3.45;0.60;;;;;;;;;;10461698;28;20206;-76
2023/05/18 08:18:48;;;;;;;3.30;0.60;;;;;;;;;;10477751;28;20249;-74
2023/05/18 08:23:49;;;;;;;4.68;0.82;;;;;;;;;;10477418;28;20465;-77
2023/05/18 08:28:50;;;;;;;3.50;0.57;;;;;;;;;;10458319;28;20213;-76
2023/05/18 08:33:51;;;;;;;3.17;0.90;;;;;;;;;;10484117;28;21381;-76
2023/05/18 08:38:52;;;;;;;0.90;0.52;;;;;;;;;;10481142;28;20241;-77
2023/05/18 08:43:58;;;;;;;4.03;0.38;;;;;;;;;;10473464;28;20268;-76
2023/05/18 08:49:01;;;;;;;2.45;0.68;;;;;;;;;;10459380;28;20224;-76
2023/05/18 08:54:04;;;;;;;2.13;0.63;;;;;;;;;;10453319;28;20415;-77
2023/05/18 08:59:07;;;;;;;3.92;0.82;;;;;;;;;;10469087;28;20214;-76
2023/05/18 09:04:08;;;;;;;1.50;0.73;;;;;;;;;;10431079;28;20226;-76
2023/05/18 09:09:09;;;;;;;3.53;0.60;;;;;;;;;;10483112;28;20218;-77
2023/05/18 09:14:11;;;;;;;3.50;0.68;;;;;;;;;;10465103;28;20229;-76
2023/05/18 09:19:12;;;;;;;7.57;0.50;;;;;;;;;;10451330;28;20233;-76
2023/05/18 09:24:14;;;;;;;2.88;0.75;;;;;;;;;;10457717;28;20223;-76
2023/05/18 09:29:16;;;;;;;2.80;0.47;;;;;;;;;;10455373;28;20320;-77
2023/05/18 09:34:18;;;;;;;1.60;0.50;;;;;;;;;;10475110;28;20240;-77
2023/05/18 09:39:19;;;;;;;0.95;0.60;;;;;;;;;;10458798;28;20213;-78
2023/05/18 09:44:28;;;;;;;5.10;0.75;;;;;;;;;;10458041;28;20227;-77
2023/05/18 09:49:32;;;;;;;1.85;0.40;;;;;;;;;;10475685;28;20220;-77
2023/05/18 09:54:35;;;;;;;1.35;0.60;;;;;;;;;;10471484;28;20586;-76
2023/05/18 09:59:36;;;;;;;2.53;0.50;;;;;;;;;;10452705;28;20304;-77
2023/05/18 10:04:38;;;;;;;0.60;0.50;;;;;;;;;;10471422;28;20260;-76
2023/05/18 10:09:40;;;;;;;2.80;0.68;;;;;;;;;;10466211;28;20315;-78
2023/05/18 10:14:43;;;;;;;2.95;0.52;;;;;;;;;;10478069;28;20272;-76
2023/05/18 10:19:45;;;;;;;2.25;0.50;;;;;;;;;;10486678;28;20663;-75
2023/05/18 10:24:50;;;;;;;1.58;1.00;;;;;;;;;;10468181;28;20210;-77
2023/05/18 10:29:53;;;;;;;3.28;0.65;;;;;;;;;;10439340;28;20699;-75
2023/05/18 10:34:55;;;;;;;0.68;0.68;;;;;;;;;;10470800;28;20210;-76
2023/05/18 10:39:57;;;;;;;3.58;0.63;;;;;;;;;;10458109;28;20357;-75
2023/05/18 10:45:00;;;;;;;2.50;0.88;;;;;;;;;;10476478;28;20343;-76
2023/05/18 10:50:03;;;;;;;2.97;0.70;;;;;;;;;;10455072;28;20251;-77
2023/05/18 10:55:05;;;;;;;1.95;0.70;;;;;;;;;;10422145;28;20754;-76
2023/05/18 11:00:09;;;;;;;1.80;0.68;;;;;;;;;;10453160;28;20792;-78
2023/05/18 11:05:10;;;;;;;2.08;0.60;;;;;;;;;;10438665;28;20704;-77
2023/05/18 11:10:13;;;;;;;2.85;0.70;;;;;;;;;;10468001;28;20206;-78
2023/05/18 11:15:17;;;;;;;4.68;0.60;;;;;;;;;;10450666;28;20591;-79
2023/05/18 11:20:18;;;;;;;1.80;1.08;;;;;;;;;;10462848;28;20262;-78
2023/05/18 11:25:25;;;;;;;2.63;0.60;;;;;;;;;;10453437;28;20219;-78
2023/05/18 11:30:27;;;;;;;2.63;0.50;;;;;;;;;;10474538;28;20237;-77
2023/05/18 11:35:28;;;;;;;3.80;0.60;;;;;;;;;;10476181;28;20278;-77
2023/05/18 11:40:48;;;;;;;1.05;0.70;;;;;;;;;;10472003;28;20218;-78
2023/05/18 11:45:56;;;;;;;2.33;0.50;;;;;;;;;;10471006;28;20731;-77
2023/05/18 11:50:57;;;;;;;1.65;0.70;;;;;;;;;;10468816;28;20222;-77
2023/05/18 11:55:58;;;;;;;2.15;0.77;;;;;;;;;;10450924;28;20687;-77
2023/05/18 12:01:01;;;;;;;3.05;0.65;;;;;;;;;;10453380;28;20241;-77
2023/05/18 12:06:04;;;;;;;4.93;1.02;;;;;;;;;;10476555;28;20244;-78
2023/05/18 12:11:06;;;;;;;3.15;0.70;;;;;;;;;;10457918;28;21028;-78
2023/05/18 12:16:07;;;;;;;4.18;0.63;;;;;;;;;;10445284;28;20221;-76
2023/05/18 12:21:08;;;;;;;1.92;0.52;;;;;;;;;;10473931;28;20225;-78
2023/05/18 12:26:09;;;;;;;2.10;0.45;;;;;;;;;;10479818;28;20228;-78
2023/05/18 12:31:11;;;;;;;1.60;0.50;;;;;;;;;;10449586;28;20928;-77
2023/05/18 12:36:15;;;;;;;0.80;0.52;;;;;;;;;;10478877;28;20225;-76
2023/05/18 12:41:25;;;;;;;1.23;0.40;;;;;;;;;;10477298;28;20229;-76
2023/05/18 12:46:26;;;;;;;3.50;0.60;;;;;;;;;;10454899;28;20516;-77
2023/05/18 12:51:34;;;;;;;0.47;0.40;;;;;;;;;;10470613;28;20283;-76
2023/05/18 12:56:59;;;;;;;0.77;0.43;;;;;;;;;;10468226;28;20415;-78
2023/05/18 13:02:00;;;;;;;2.40;0.60;;;;;;;;;;10462876;28;20267;-77
2023/05/18 13:07:01;;;;;;;0.75;0.50;;;;;;;;;;10448261;28;20217;-79
2023/05/18 13:12:02;;;;;;;6.65;0.50;;;;;;;;;;10483111;28;20821;-77
2023/05/18 13:17:03;;;;;;;0.40;0.40;;;;;;;;;;10479256;28;20334;-77
2023/05/18 13:22:04;;;;;;;2.97;0.40;;;;;;;;;;10478907;28;20307;-76
2023/05/18 13:27:06;;;;;;;0.75;0.47;;;;;;;;;;10473102;28;20225;-78
2023/05/18 13:32:07;;;;;;;0.55;0.40;;;;;;;;;;10484275;28;20652;-75
2023/05/18 13:37:08;;;;;;;1.15;0.40;;;;;;;;;;10479439;28;20960;-77
2023/05/18 13:42:09;;;;;;;2.53;0.40;;;;;;;;;;10479010;28;20241;-78
2023/05/18 13:47:10;;;;;;;0.32;0.30;;;;;;;;;;10481710;28;20221;-79
2023/05/18 13:52:11;;;;;;;3.13;0.45;;;;;;;;;;10469742;28;20226;-80
2023/05/18 13:57:12;;;;;;;3.08;0.50;;;;;;;;;;10464405;28;20213;-82
2023/05/18 14:02:13;;;;;;;3.22;0.60;;;;;;;;;;10485287;28;20239;-77
2023/05/18 14:07:14;;;;;;;2.85;0.57;;;;;;;;;;10433782;28;20231;-77
2023/05/18 14:12:15;;;;;;;1.58;0.70;;;;;;;;;;10456270;28;20662;-76
2023/05/18 14:17:16;;;;;;;1.50;0.50;;;;;;;;;;10470086;28;20984;-77
2023/05/18 14:22:17;;;;;;;2.10;0.40;;;;;;;;;;10453335;28;20213;-76
2023/05/18 14:27:19;;;;;;;1.05;0.63;;;;;;;;;;10452748;28;20279;-76
2023/05/18 14:32:20;;;;;;;1.20;0.60;;;;;;;;;;10471799;28;20244;-76
2023/05/18 14:37:21;;;;;;;3.00;0.63;;;;;;;;;;10457717;28;20245;-75
2023/05/18 14:42:22;;;;;;;0.85;0.50;;;;;;;;;;10453856;28;20217;-76
2023/05/18 14:47:23;;;;;;;2.17;0.68;;;;;;;;;;10456590;28;20260;-76
2023/05/18 14:52:25;;;;;;;0.65;0.32;;;;;;;;;;10447772;28;20248;-77
2023/05/18 14:57:25;;;;;;;3.17;0.55;;;;;;;;;;10482906;28;20230;-76
2023/05/18 15:02:26;;;;;;;4.63;1.55;;;;;;;;;;10476391;28;20213;-78
2023/05/18 15:07:27;;;;;;;0.63;0.47;;;;;;;;;;10458723;28;20222;-77
2023/05/18 15:12:28;;;;;;;2.25;0.40;;;;;;;;;;10467266;28;20221;-77
2023/05/18 15:17:29;;;;;;;1.40;0.60;;;;;;;;;;10487304;28;20225;-77
2023/05/18 15:22:34;;;;;;;0.52;0.40;;;;;;;;;;10494154;28;20213;-77
2023/05/18 15:27:35;;;;;;;0.95;0.75;;;;;;;;;;10441998;28;20222;-77
2023/05/18 15:32:39;;;;;;;1.15;0.57;;;;;;;;;;10481520;28;20289;-75
2023/05/18 15:37:40;;;;;;;2.63;0.50;;;;;;;;;;10465759;28;20304;-76
2023/05/18 15:42:41;;;;;;;0.77;0.55;;;;;;;;;;10449548;28;20221;-77
2023/05/18 15:47:42;;;;;;;1.20;1.13;;;;;;;;;;10478966;28;20229;-77
2023/05/18 15:52:43;;;;;;;1.02;0.88;;;;;;;;;;10476007;28;20723;-77
2023/05/18 15:57:44;;;;;;;2.55;0.55;;;;;;;;;;10472550;28;20225;-76
2023/05/18 16:02:45;;;;;;;1.55;0.65;;;;;;;;;;10449250;28;20810;-76
2023/05/18 16:07:46;;;;;;;2.38;0.57;;;;;;;;;;10475426;28;20222;-75
2023/05/18 16:12:47;;;;;;;1.85;0.80;;;;;;;;;;10471298;28;20262;-76
2023/05/18 16:17:48;;;;;;;0.57;0.40;;;;;;;;;;10451500;28;20241;-77
2023/05/18 16:22:50;;;;;;;1.38;0.50;;;;;;;;;;10472686;28;20218;-77
2023/05/18 16:27:51;;;;;;;2.15;0.93;;;;;;;;;;10471609;28;20264;-78
2023/05/18 16:32:52;;;;;;;1.42;0.50;;;;;;;;;;10467567;28;21081;-78
2023/05/18 16:37:53;;;;;;;4.07;0.30;;;;;;;;;;10469169;28;20278;-77
2023/05/18 16:42:54;;;;;;;1.40;0.57;;;;;;;;;;10473334;28;20218;-78
2023/05/18 16:47:55;;;;;;;0.50;0.50;;;;;;;;;;10473116;28;20827;-78
2023/05/18 16:52:56;;;;;;;0.55;0.40;;;;;;;;;;10470826;28;20222;-77
2023/05/18 16:57:57;;;;;;;0.80;0.50;;;;;;;;;;10430054;28;20227;-78
2023/05/18 17:02:58;;;;;;;4.38;0.60;;;;;;;;;;10449006;28;20210;-77
2023/05/18 17:07:59;;;;;;;0.88;0.40;;;;;;;;;;10455219;28;20209;-76
2023/05/18 17:13:00;;;;;;;1.33;0.40;;;;;;;;;;10469293;28;20218;-77
2023/05/18 17:18:01;;;;;;;0.60;0.50;;;;;;;;;;10469969;28;20222;-77
2023/05/18 17:23:03;;;;;;;3.10;0.43;;;;;;;;;;10466034;28;20206;-78
2023/05/18 17:28:04;;;;;;;1.95;0.50;;;;;;;;;;10448356;28;20679;-78
2023/05/18 17:33:05;;;;;;;1.80;0.50;;;;;;;;;;10474813;28;20218;-78
2023/05/18 17:38:06;;;;;;;2.28;0.70;;;;;;;;;;10478715;28;20224;-76
2023/05/18 17:43:07;;;;;;;0.38;0.38;;;;;;;;;;10471704;28;20831;-76
2023/05/18 17:48:08;;;;;;;1.02;0.70;;;;;;;;;;10471332;28;20221;-77
2023/05/18 17:53:09;;;;;;;0.68;0.50;;;;;;;;;;10476053;28;20384;-79
2023/05/18 17:58:10;;;;;;;2.60;0.60;;;;;;;;;;10448361;28;20697;-78
2023/05/18 18:03:12;;;;;;;0.77;0.50;;;;;;;;;;10470393;28;20230;-78
2023/05/18 18:08:14;;;;;;;1.67;0.70;;;;;;;;;;10446941;28;20209;-79
2023/05/18 18:13:15;;;;;;;2.03;0.50;;;;;;;;;;10471385;28;20221;-79
2023/05/18 18:18:16;;;;;;;0.98;0.43;;;;;;;;;;10443774;28;20305;-79
2023/05/18 18:23:17;;;;;;;4.28;0.50;;;;;;;;;;10478627;28;20633;-80
2023/05/18 18:28:19;;;;;;;1.08;0.35;;;;;;;;;;10463208;28;20217;-78
2023/05/18 18:33:20;;;;;;;3.05;0.70;;;;;;;;;;10467316;28;20217;-79
2023/05/18 18:38:21;;;;;;;1.02;0.50;;;;;;;;;;10455501;28;20225;-77
2023/05/18 18:43:22;;;;;;;1.63;0.70;;;;;;;;;;10469364;28;20224;-77
2023/05/18 18:48:24;;;;;;;0.40;0.40;;;;;;;;;;10442174;28;20213;-78
2023/05/18 18:53:25;;;;;;;0.50;0.50;;;;;;;;;;10430098;28;20218;-78
2023/05/18 18:58:26;;;;;;;1.42;0.60;;;;;;;;;;10465971;28;20221;-77
2023/05/18 19:03:28;;;;;;;1.75;0.38;;;;;;;;;;10457694;28;20217;-76
2023/05/18 19:08:30;;;;;;;1.95;0.60;;;;;;;;;;10488891;28;20214;-76
2023/05/18 19:13:31;;;;;;;2.10;0.70;;;;;;;;;;10478299;28;20748;-75
2023/05/18 19:18:32;;;;;;;2.35;0.63;;;;;;;;;;10481403;28;20287;-76
2023/05/18 19:23:33;;;;;;;1.35;1.10;;;;;;;;;;10495439;28;20218;-76
2023/05/18 19:28:34;;;;;;;4.63;3.83;;;;;;;;;;10490402;28;20584;-74
2023/05/18 19:33:35;;;;;;;5.15;4.68;;;;;;;;;;10467878;28;20266;-76
2023/05/18 19:38:36;;;;;;;5.07;3.78;;;;;;;;;;10484422;28;20221;-77
2023/05/18 19:43:37;;;;;;;6.32;3.45;;;;;;;;;;10461607;28;20217;-76
2023/05/18 19:48:38;;;;;;;10.98;6.15;;;;;;;;;;10482565;28;20936;-75
2023/05/18 19:53:41;;;;;;;4.22;3.88;;;;;;;;;;10476734;28;20217;-77
2023/05/18 19:58:43;;;;;;;7.03;5.20;;;;;;;;;;10485625;28;20228;-76
2023/05/18 20:03:48;;;;;;;5.05;3.70;;;;;;;;;;10487912;28;20217;-76
2023/05/18 20:08:49;;;;;;;3.63;3.33;;;;;;;;;;10458011;28;20220;-77
2023/05/18 20:13:50;;;;;;;6.00;2.65;;;;;;;;;;10470864;28;20711;-76
2023/05/18 20:18:51;;;;;;;5.93;4.25;;;;;;;;;;10488614;28;20214;-75
2023/05/18 20:23:52;;;;;;;2.22;2.13;;;;;;;;;;10489823;28;20263;-74
2023/05/18 20:28:53;;;;;;;2.20;2.10;;;;;;;;;;10484557;28;20301;-76
2023/05/18 20:33:56;;;;;;;8.73;4.13;;;;;;;;;;10456368;28;20304;-75
2023/05/18 20:38:58;;;;;;;1.20;1.20;;;;;;;;;;10468647;28;20250;-77
2023/05/18 20:44:00;;;;;;;3.17;1.60;;;;;;;;;;10482999;28;20224;-76
2023/05/18 20:49:02;;;;;;;3.50;2.13;;;;;;;;;;10482334;28;20707;-76
2023/05/18 20:54:03;;;;;;;8.52;1.92;;;;;;;;;;10463309;28;20218;-76
2023/05/18 20:59:04;;;;;;;3.03;1.58;;;;;;;;;;10467082;28;20220;-77
2023/05/18 21:04:05;;;;;;;5.18;1.48;;;;;;;;;;10462256;28;20571;-76
2023/05/18 21:09:07;;;;;;;4.38;1.63;;;;;;;;;;10454630;28;20244;-76
2023/05/18 21:14:08;;;;;;;2.67;1.15;;;;;;;;;;10455558;28;20247;-77
2023/05/18 21:19:09;;;;;;;3.53;1.48;;;;;;;;;;10441230;28;20232;-78
2023/05/18 21:24:10;;;;;;;2.33;0.82;;;;;;;;;;10467056;28;20940;-75
2023/05/18 21:29:11;;;;;;;2.17;0.98;;;;;;;;;;10476775;28;20218;-75
2023/05/18 21:34:12;;;;;;;2.70;0.98;;;;;;;;;;10483560;28;20229;-77
2023/05/18 21:39:13;;;;;;;4.22;1.40;;;;;;;;;;10463739;28;20222;-78
2023/05/18 21:44:14;;;;;;;1.00;1.00;;;;;;;;;;10464645;28;20257;-77
2023/05/18 21:49:15;;;;;;;4.13;1.00;;;;;;;;;;10463588;28;20893;-77
2023/05/18 21:54:16;;;;;;;1.10;1.05;;;;;;;;;;10452641;28;20352;-78
2023/05/18 21:59:17;;;;;;;1.08;0.98;;;;;;;;;;10423000;28;20237;-78
2023/05/18 22:04:18;;;;;;;1.67;0.90;;;;;;;;;;10470950;28;20221;-77
2023/05/18 22:09:19;;;;;;;3.78;1.23;;;;;;;;;;10476006;28;20225;-76
2023/05/18 22:14:20;;;;;;;9.50;0.90;;;;;;;;;;10452891;28;20242;-76
2023/05/18 22:19:22;;;;;;;1.73;0.82;;;;;;;;;;10480877;28;20332;-77
2023/05/18 22:24:23;;;;;;;1.38;0.60;;;;;;;;;;10459883;28;20231;-77
2023/05/18 22:29:24;;;;;;;6.05;1.08;;;;;;;;;;10457297;28;20228;-75
2023/05/18 22:34:25;;;;;;;2.55;1.10;;;;;;;;;;10440650;28;20752;-77
2023/05/18 22:39:26;;;;;;;3.83;0.85;;;;;;;;;;10475247;28;20214;-77
2023/05/18 22:44:27;;;;;;;1.02;0.75;;;;;;;;;;10462884;28;20204;-77
2023/05/18 22:49:28;;;;;;;2.42;0.80;;;;;;;;;;10438857;28;20217;-77
2023/05/18 22:54:30;;;;;;;3.33;0.88;;;;;;;;;;10426754;28;20226;-77
2023/05/18 22:59:31;;;;;;;2.17;0.88;;;;;;;;;;10437348;28;20247;-75
2023/05/18 23:04:32;;;;;;;2.35;0.70;;;;;;;;;;10475657;28;20218;-77
2023/05/18 23:09:35;;;;;;;2.33;0.70;;;;;;;;;;10446817;28;20700;-76
2023/05/18 23:14:36;;;;;;;2.85;0.90;;;;;;;;;;10478750;28;20214;-76
2023/05/18 23:19:38;;;;;;;1.90;0.80;;;;;;;;;;10488987;28;20221;-77
2023/05/18 23:24:39;;;;;;;2.15;0.85;;;;;;;;;;10468859;28;20229;-75
2023/05/18 23:29:41;;;;;;;1.08;0.98;;;;;;;;;;10469060;28;20219;-78
2023/05/18 23:34:43;;;;;;;1.95;1.00;;;;;;;;;;10485471;28;20267;-77
2023/05/18 23:39:45;;;;;;;1.23;1.05;;;;;;;;;;10472410;28;20221;-77
2023/05/18 23:44:47;;;;;;;3.40;1.15;;;;;;;;;;10453377;28;20262;-76
2023/05/18 23:49:48;;;;;;;2.13;1.38;;;;;;;;;;10432678;28;20237;-77
2023/05/18 23:54:52;;;;;;;4.00;1.42;;;;;;;;;;10471960;28;20753;-77
2023/05/18 23:59:54;;;;;;;3.47;1.50;;;;;;;;;;10461504;28;20209;-75
